Straumvik — LEYJ — position and weather

sailwx.info

Track history (hours):
 
Tides and Currents Weather Stations Pressure Air Temp Water Temp Dewpoint Dewpoint Depression Visibility Wind Speed Wind Dir Waves Ship Positions

Straumvik

Last reported at 2017-Sep-22 02:00 UTC. Time now 2017-Sep-22 10:02 UTC.
Position N 59°19' E 005°58'.

Length 50 m; draft 5 m.

Type: Ship. MMSI: 258260000.

Date/timePositionNaut miles runAvg speedWind from/ knotsBaromVisibWave heightAir tempDewpointWater temp
2017-Sep-22 02:00N 59°19' E 005°58'3 5.5
2017-Sep-22 01:30N 59°21' E 006°01'1 2.3
2017-Sep-22 00:58N 59°22' E 006°03'0 0.0
2017-Sep-22 00:28N 59°22' E 006°03'0 0.2
2017-Sep-21 23:58N 59°22' E 006°03'0 0.0
2017-Sep-21 23:28N 59°22' E 006°03'0 0.0
2017-Sep-21 22:58N 59°22' E 006°03'0 0.0
2017-Sep-21 22:28N 59°22' E 006°03'0 0.0
2017-Sep-21 21:58N 59°22' E 006°03'0 0.0
2017-Sep-21 21:28N 59°22' E 006°03'0 0.0
2017-Sep-21 20:58N 59°22' E 006°03'0 0.0
2017-Sep-21 20:30N 59°22' E 006°03'2 5.1
2017-Sep-21 20:00N 59°20' E 005°60'4 7.1
2017-Sep-21 19:30N 59°18' E 005°55'4 8.0
2017-Sep-21 19:00N 59°14' E 005°55'4 8.3
2017-Sep-21 18:30N 59°09' E 005°56'4 7.9
2017-Sep-21 18:00N 59°06' E 005°54'0 0.4
2017-Sep-21 17:29N 59°06' E 005°55'0 0.0
2017-Sep-21 17:00N 59°06' E 005°55'0 0.0
2017-Sep-21 16:31N 59°06' E 005°55'4 7.0
2017-Sep-21 16:00N 59°08' E 005°59'5 9.1
2017-Sep-21 15:30N 59°12' E 006°04'4 6.9
2017-Sep-21 14:59N 59°14' E 006°10'0 0.0
2017-Sep-21 14:29N 59°14' E 006°10'0 0.0
2017-Sep-21 13:59N 59°14' E 006°10'0 0.1
2017-Sep-21 13:30N 59°14' E 006°10'0 0.1
2017-Sep-21 12:59N 59°14' E 006°10'0 0.0
2017-Sep-21 12:29N 59°14' E 006°10'0 0.0
2017-Sep-21 11:59N 59°14' E 006°10'0 0.0
2017-Sep-21 11:26N 59°14' E 006°10'0 0.0
2017-Sep-21 10:59N 59°14' E 006°10'0 0.0
2017-Sep-21 10:29N 59°14' E 006°10'0 0.0
2017-Sep-21 09:59N 59°14' E 006°10'0 0.0
2017-Sep-21 09:29N 59°14' E 006°10'0 0.0
2017-Sep-21 08:59N 59°14' E 006°10'0 0.0
2017-Sep-21 08:29N 59°14' E 006°10'0 0.0
2017-Sep-21 07:59N 59°14' E 006°10'0 0.0
2017-Sep-21 07:29N 59°14' E 006°10'0 0.0
2017-Sep-21 06:59N 59°14' E 006°10'0 0.0
2017-Sep-21 06:29N 59°14' E 006°10'0 0.0
2017-Sep-21 05:59N 59°14' E 006°10'0 0.0
2017-Sep-21 05:29N 59°14' E 006°10'0 0.0
2017-Sep-21 05:00N 59°14' E 006°10'1 2.5
2017-Sep-21 04:30N 59°14' E 006°07'4 7.9
2017-Sep-21 04:00N 59°11' E 006°03'4 7.9
2017-Sep-21 03:30N 59°08' E 005°58'3 5.9
2017-Sep-21 03:01N 59°05' E 005°54'0 0.0
2017-Sep-21 02:29N 59°05' E 005°54'0 0.0
2017-Sep-21 01:59N 59°05' E 005°54'0 0.0
2017-Sep-21 01:29N 59°05' E 005°54'0 0.0
2017-Sep-21 00:59N 59°05' E 005°54'0 0.0
2017-Sep-21 00:29N 59°05' E 005°54'0 0.0
2017-Sep-20 23:59N 59°05' E 005°54'0 0.0
2017-Sep-20 23:26N 59°05' E 005°54'0 0.0
2017-Sep-20 22:59N 59°05' E 005°54'0 0.0
2017-Sep-20 22:29N 59°05' E 005°54'0 0.0
2017-Sep-20 21:59N 59°05' E 005°54'0 0.0
2017-Sep-20 21:29N 59°05' E 005°54'0 0.0
2017-Sep-20 20:59N 59°05' E 005°54'0 0.0
2017-Sep-20 20:29N 59°05' E 005°54'0 0.0
2017-Sep-20 19:59N 59°05' E 005°54'0 0.0
2017-Sep-20 19:29N 59°05' E 005°54'0 0.0
2017-Sep-20 19:00N 59°05' E 005°54'0 0.0
2017-Sep-20 18:30N 59°05' E 005°54'0 0.0
2017-Sep-20 17:59N 59°05' E 005°54'0 0.0
2017-Sep-20 17:30N 59°05' E 005°54'0 0.0
2017-Sep-20 17:00N 59°05' E 005°54'0 0.0
2017-Sep-20 16:30N 59°05' E 005°54'0 0.0
2017-Sep-20 16:00N 59°05' E 005°54'0 0.0
2017-Sep-20 15:30N 59°05' E 005°54'0 0.0
2017-Sep-20 15:00N 59°05' E 005°54'8 7.8
2017-Sep-20 14:00N 58°58' E 005°50'4 8.9
2017-Sep-20 13:30N 58°54' E 005°46'3 5.6
2017-Sep-20 13:00N 58°51' E 005°45'0 0.0
2017-Sep-20 12:28N 58°51' E 005°45'0 0.0
2017-Sep-20 11:58N 58°51' E 005°45'0 0.0
2017-Sep-20 11:28N 58°51' E 005°45'0 0.0
2017-Sep-20 10:58N 58°51' E 005°45'0 0.0
2017-Sep-20 10:28N 58°51' E 005°45'0 0.0
2017-Sep-20 09:58N 58°51' E 005°45'0 0.0
2017-Sep-20 09:28N 58°51' E 005°45'0 0.0
2017-Sep-20 08:58N 58°51' E 005°45'0 0.0
2017-Sep-20 08:28N 58°51' E 005°45'0 0.2
2017-Sep-20 08:01N 58°51' E 005°45'3 5.7
2017-Sep-20 07:30N 58°54' E 005°46'3 6.2
2017-Sep-20 07:00N 58°57' E 005°48'3 5.8
2017-Sep-20 06:30N 58°59' E 005°51'3 6.5
2017-Sep-20 06:00N 59°03' E 005°52'3 5.7
2017-Sep-20 05:30N 59°05' E 005°54'0 0.7
2017-Sep-20 05:00N 59°05' E 005°54'0 0.0
2017-Sep-20 04:30N 59°05' E 005°54'0 0.4
2017-Sep-20 04:00N 59°05' E 005°54'4 7.7
2017-Sep-20 03:30N 59°08' E 005°48'5 9.0
2017-Sep-20 03:00N 59°09' E 005°39'4 8.8
2017-Sep-20 02:30N 59°11' E 005°32'4 8.8
2017-Sep-20 02:00N 59°14' E 005°26'4 7.4
2017-Sep-20 01:29N 59°17' E 005°20'4 8.9
2017-Sep-20 01:00N 59°21' E 005°19'5 9.3
2017-Sep-20 00:29N 59°25' E 005°14'5 9.5
2017-Sep-20 00:00N 59°30' E 005°13'5 8.9
2017-Sep-19 23:29N 59°34' E 005°15'4 9.2
2017-Sep-19 23:00N 59°38' E 005°19'5 9.2
2017-Sep-19 22:30N 59°42' E 005°25'5 9.6
2017-Sep-19 21:59N 59°45' E 005°31'4 9.0
2017-Sep-19 21:30N 59°49' E 005°36'4 8.7
2017-Sep-19 21:00N 59°52' E 005°41'5 9.1
2017-Sep-19 20:30N 59°56' E 005°47'5 9.3
2017-Sep-19 20:00N 59°60' E 005°53'5 9.1
2017-Sep-19 19:30N 60°03' E 005°59'5 9.0
2017-Sep-19 19:00N 60°07' E 006°03'4 8.6
2017-Sep-19 18:30N 60°11' E 006°04'4 8.4
2017-Sep-19 18:00N 60°14' E 006°10'4 8.7
2017-Sep-19 17:30N 60°18' E 006°14'4 8.8
2017-Sep-19 16:59N 60°22' E 006°19'4 8.8
2017-Sep-19 16:30N 60°24' E 006°27'4 8.7
2017-Sep-19 16:00N 60°26' E 006°34'4 8.5
2017-Sep-19 15:30N 60°26' E 006°43'4 8.9
2017-Sep-19 15:00N 60°28' E 006°50'2 4.2
2017-Sep-19 14:28N 60°28' E 006°54'0 0.0
2017-Sep-19 13:58N 60°28' E 006°54'0 0.0
2017-Sep-19 13:28N 60°28' E 006°54'0 0.0
2017-Sep-19 12:58N 60°28' E 006°54'0 0.0
2017-Sep-19 12:28N 60°28' E 006°54'0 0.0
2017-Sep-19 11:58N 60°28' E 006°54'0 0.0
2017-Sep-19 11:28N 60°28' E 006°54'0 0.0
2017-Sep-19 10:58N 60°28' E 006°54'0 0.0
2017-Sep-19 10:28N 60°28' E 006°54'0 0.0
2017-Sep-19 09:58N 60°28' E 006°54'0 0.0
2017-Sep-19 09:28N 60°28' E 006°54'0 0.0
2017-Sep-19 08:58N 60°28' E 006°54'0 0.0
2017-Sep-19 08:28N 60°28' E 006°54'0 0.0
2017-Sep-19 07:58N 60°28' E 006°54'0 0.0
2017-Sep-19 07:28N 60°28' E 006°54'0 0.0
2017-Sep-19 06:58N 60°28' E 006°54'0 0.0
2017-Sep-19 06:28N 60°28' E 006°54'0 0.0
2017-Sep-19 05:58N 60°28' E 006°54'0 0.0
2017-Sep-19 05:28N 60°28' E 006°54'0 0.0
2017-Sep-19 04:58N 60°28' E 006°54'0 0.0
2017-Sep-19 04:30N 60°28' E 006°54'1 2.4
2017-Sep-19 04:00N 60°29' E 006°52'4 7.1
2017-Sep-19 03:30N 60°27' E 006°46'4 7.5
2017-Sep-19 03:00N 60°26' E 006°38'4 8.1
2017-Sep-19 02:30N 60°26' E 006°30'4 8.5
2017-Sep-19 01:59N 60°23' E 006°23'4 8.4
2017-Sep-19 01:30N 60°20' E 006°17'4 8.5
2017-Sep-19 01:00N 60°17' E 006°12'4 8.2
2017-Sep-19 00:30N 60°13' E 006°08'4 8.0
2017-Sep-19 00:00N 60°10' E 006°04'4 8.3
2017-Sep-18 23:30N 60°06' E 006°02'4 8.5
2017-Sep-18 23:00N 60°02' E 005°57'4 8.5
2017-Sep-18 22:30N 59°59' E 005°52'4 8.4
2017-Sep-18 22:00N 59°56' E 005°46'4 8.3
2017-Sep-18 21:30N 59°53' E 005°42'4 8.1
2017-Sep-18 21:00N 59°49' E 005°37'4 8.2
2017-Sep-18 20:30N 59°45' E 005°38'4 7.8
2017-Sep-18 20:00N 59°41' E 005°41'4 7.8
2017-Sep-18 19:30N 59°39' E 005°47'4 8.0
2017-Sep-18 19:00N 59°40' E 005°55'1 1.1
2017-Sep-18 18:28N 59°40' E 005°56'0 0.0
2017-Sep-18 17:58N 59°40' E 005°56'0 0.0
2017-Sep-18 17:28N 59°40' E 005°56'0 0.0
2017-Sep-18 16:58N 59°40' E 005°56'0 0.0
2017-Sep-18 16:28N 59°40' E 005°56'0 0.0
2017-Sep-18 15:58N 59°40' E 005°56'0 0.0
2017-Sep-18 15:28N 59°40' E 005°56'0 0.0
2017-Sep-18 14:58N 59°40' E 005°56'0 0.0
2017-Sep-18 14:28N 59°40' E 005°56'0 0.0
2017-Sep-18 14:00N 59°40' E 005°56'3 6.4
2017-Sep-18 13:30N 59°39' E 005°50'5 9.2
2017-Sep-18 13:00N 59°41' E 005°41'5 9.6
2017-Sep-18 12:30N 59°45' E 005°37'5 9.6
2017-Sep-18 12:00N 59°49' E 005°33'5 9.3
2017-Sep-18 11:29N 59°54' E 005°31'5 9.5
2017-Sep-18 10:59N 59°58' E 005°25'4 9.2
2017-Sep-18 10:30N 60°01' E 005°20'5 9.1
2017-Sep-18 10:00N 60°06' E 005°18'5 9.3
2017-Sep-18 09:30N 60°10' E 005°15'5 9.1
2017-Sep-18 09:00N 60°14' E 005°10'5 9.0
2017-Sep-18 08:30N 60°18' E 005°08'2 4.4
2017-Sep-18 07:58N 60°21' E 005°07'0 0.0
2017-Sep-18 07:28N 60°21' E 005°07'0 0.0
2017-Sep-18 06:58N 60°21' E 005°07'0 0.0
2017-Sep-18 06:28N 60°21' E 005°07'0 0.0
2017-Sep-18 05:58N 60°21' E 005°07'0 0.0
2017-Sep-18 05:28N 60°21' E 005°07'0 0.0
2017-Sep-18 04:58N 60°21' E 005°07'0 0.0
2017-Sep-18 04:28N 60°21' E 005°07'0 0.0
2017-Sep-18 03:58N 60°21' E 005°07'0 0.0
2017-Sep-18 03:30N 60°21' E 005°07'1 2.9
2017-Sep-18 03:00N 60°19' E 005°08'3 5.8
2017-Sep-18 02:30N 60°16' E 005°09'3 5.7
2017-Sep-18 02:00N 60°14' E 005°10'3 5.5
2017-Sep-18 01:29N 60°11' E 005°13'3 5.4
2017-Sep-18 01:00N 60°09' E 005°16'3 5.4
2017-Sep-18 00:29N 60°07' E 005°18'3 5.7
2017-Sep-18 00:00N 60°04' E 005°20'3 6.1
2017-Sep-17 23:30N 60°01' E 005°20'3 5.7
2017-Sep-17 22:59N 59°58' E 005°23'3 6.2
2017-Sep-17 22:30N 59°56' E 005°28'3 6.0
2017-Sep-17 22:00N 59°54' E 005°31'3 6.1
2017-Sep-17 21:30N 59°51' E 005°33'3 5.6
2017-Sep-17 21:00N 59°48' E 005°34'2 4.7
2017-Sep-17 20:30N 59°46' E 005°32'3 5.4
2017-Sep-17 20:00N 59°44' E 005°29'3 5.5
2017-Sep-17 19:30N 59°42' E 005°25'3 5.5
2017-Sep-17 19:00N 59°40' E 005°22'3 6.2
2017-Sep-17 18:30N 59°37' E 005°18'3 6.9
2017-Sep-17 18:00N 59°34' E 005°15'4 7.2
2017-Sep-17 17:30N 59°31' E 005°13'3 6.7
2017-Sep-17 17:00N 59°27' E 005°13'3 6.5
2017-Sep-17 16:29N 59°24' E 005°16'4 7.5
2017-Sep-17 16:00N 59°21' E 005°19'4 7.4
2017-Sep-17 15:30N 59°17' E 005°20'3 5.7
2017-Sep-17 15:00N 59°15' E 005°23'3 5.7
2017-Sep-17 14:30N 59°13' E 005°28'3 6.5
2017-Sep-17 14:00N 59°11' E 005°32'3 6.8
2017-Sep-17 13:30N 59°10' E 005°38'3 6.9
2017-Sep-17 13:00N 59°08' E 005°44'4 7.0
2017-Sep-17 12:30N 59°07' E 005°51'3 5.1
2017-Sep-17 12:00N 59°07' E 005°56'3 6.4
2017-Sep-17 11:30N 59°08' E 006°02'3 5.8
2017-Sep-17 11:00N 59°09' E 006°07'2 3.0
2017-Sep-17 10:30N 59°09' E 006°10'0 0.0
2017-Sep-17 10:00N 59°09' E 006°10'0 0.0
2017-Sep-17 09:24N 59°09' E 006°10'0 0.0
2017-Sep-17 09:00N 59°09' E 006°10'0 0.0
2017-Sep-17 08:27N 59°09' E 006°10'0 0.0
2017-Sep-17 07:57N 59°09' E 006°10'0 0.0
2017-Sep-17 07:30N 59°09' E 006°10'0 0.0
2017-Sep-17 07:00N 59°09' E 006°10'0 0.0
2017-Sep-17 06:30N 59°09' E 006°10'0 0.0
2017-Sep-17 06:00N 59°09' E 006°10'0 0.0
2017-Sep-17 05:30N 59°09' E 006°10'0 0.0
2017-Sep-17 05:00N 59°09' E 006°10'0 0.0
2017-Sep-17 04:30N 59°09' E 006°10'0 0.0
2017-Sep-17 04:00N 59°09' E 006°10'0 0.0
2017-Sep-17 03:30N 59°09' E 006°10'0 0.0
2017-Sep-17 03:00N 59°09' E 006°10'0 0.0
2017-Sep-17 02:30N 59°09' E 006°10'0 0.0
2017-Sep-17 01:57N 59°09' E 006°10'0 0.0
2017-Sep-17 01:30N 59°09' E 006°10'0 0.0
2017-Sep-17 01:00N 59°09' E 006°10'0 0.0
2017-Sep-17 00:30N 59°09' E 006°10'0 0.0
2017-Sep-16 23:57N 59°09' E 006°10'0 0.0
2017-Sep-16 23:30N 59°09' E 006°10'0 0.0
2017-Sep-16 23:00N 59°09' E 006°10'0 0.6
2017-Sep-16 22:30N 59°09' E 006°09'4 7.1
2017-Sep-16 22:00N 59°08' E 006°03'4 7.7
2017-Sep-16 21:30N 59°07' E 005°56'3 6.1
2017-Sep-16 21:00N 59°07' E 005°50'4 8.1
2017-Sep-16 20:30N 59°09' E 005°42'4 8.2
2017-Sep-16 20:00N 59°10' E 005°35'4 8.0
2017-Sep-16 19:30N 59°13' E 005°29'4 7.2
2017-Sep-16 19:00N 59°15' E 005°23'3 6.8
2017-Sep-16 18:30N 59°18' E 005°20'4 8.1
2017-Sep-16 18:00N 59°22' E 005°18'2 4.1
2017-Sep-16 17:30N 59°24' E 005°16'0 0.1
2017-Sep-16 17:00N 59°24' E 005°16'3 6.6
2017-Sep-16 16:30N 59°27' E 005°14'4 7.7
2017-Sep-16 16:00N 59°30' E 005°13'4 8.3
2017-Sep-16 15:30N 59°34' E 005°15'5 9.1
2017-Sep-16 15:00N 59°39' E 005°20'5 9.2
2017-Sep-16 14:30N 59°42' E 005°25'5 9.4
2017-Sep-16 14:00N 59°45' E 005°32'4 8.4
2017-Sep-16 13:30N 59°50' E 005°33'4 7.7
2017-Sep-16 13:00N 59°53' E 005°32'4 7.1
2017-Sep-16 12:30N 59°56' E 005°28'4 7.5
2017-Sep-16 12:00N 59°59' E 005°22'4 8.2
2017-Sep-16 11:30N 60°03' E 005°20'4 7.1
2017-Sep-16 11:00N 60°05' E 005°25'3 6.5
2017-Sep-16 10:30N 60°03' E 005°28'3 5.8
2017-Sep-16 10:00N 59°60' E 005°29'0 0.0
2017-Sep-16 09:29N 59°60' E 005°29'0 0.0
2017-Sep-16 08:53N 59°60' E 005°29'0 0.0
2017-Sep-16 08:29N 59°60' E 005°29'0 0.0
2017-Sep-16 07:59N 59°60' E 005°29'0 0.0
2017-Sep-16 07:23N 59°60' E 005°29'0 0.0
2017-Sep-16 06:53N 59°60' E 005°29'0 0.0
2017-Sep-16 06:29N 59°60' E 005°29'0 0.0
2017-Sep-16 05:59N 59°60' E 005°29'0 0.0
2017-Sep-16 05:29N 59°60' E 005°29'0 0.1
2017-Sep-16 05:00N 59°60' E 005°29'2 3.4
2017-Sep-16 04:29N 60°01' E 005°27'2 4.1
2017-Sep-16 04:00N 60°03' E 005°28'2 3.7
2017-Sep-16 03:30N 60°05' E 005°28'2 4.5
2017-Sep-16 03:00N 60°06' E 005°24'2 4.4
2017-Sep-16 02:30N 60°07' E 005°20'2 4.4
2017-Sep-16 02:00N 60°09' E 005°17'2 4.6
2017-Sep-16 01:30N 60°10' E 005°14'2 4.1
2017-Sep-16 01:00N 60°12' E 005°11'3 5.1
2017-Sep-16 00:30N 60°14' E 005°09'3 5.2
2017-Sep-16 00:00N 60°17' E 005°09'3 5.4
2017-Sep-15 23:30N 60°20' E 005°09'3 5.5
2017-Sep-15 23:00N 60°22' E 005°10'3 5.9
2017-Sep-15 22:30N 60°24' E 005°15'3 5.2
2017-Sep-15 22:00N 60°27' E 005°15'3 5.8
2017-Sep-15 21:30N 60°30' E 005°14'3 6.0
2017-Sep-15 21:00N 60°31' E 005°08'3 6.0
2017-Sep-15 20:30N 60°32' E 005°03'2 3.7
2017-Sep-15 19:58N 60°33' E 004°59'0 0.0
2017-Sep-15 19:31N 60°33' E 004°59'0 0.0
2017-Sep-15 19:01N 60°33' E 004°59'0 0.0
2017-Sep-15 18:28N 60°33' E 004°59'0 0.0
2017-Sep-15 18:01N 60°33' E 004°59'1 2.7
2017-Sep-15 17:30N 60°33' E 005°02'4 8.3
2017-Sep-15 17:00N 60°31' E 005°09'4 7.6
2017-Sep-15 16:30N 60°28' E 005°15'4 7.5
2017-Sep-15 16:00N 60°24' E 005°15'4 7.8
2017-Sep-15 15:30N 60°21' E 005°10'4 7.9
2017-Sep-15 15:00N 60°17' E 005°11'4 7.5
2017-Sep-15 14:30N 60°13' E 005°10'4 8.2
2017-Sep-15 14:01N 60°10' E 005°16'4 8.3
2017-Sep-15 13:30N 60°08' E 005°22'4 8.9
2017-Sep-15 13:01N 60°07' E 005°31'4 8.9
2017-Sep-15 12:30N 60°05' E 005°39'4 8.1
2017-Sep-15 12:00N 60°02' E 005°43'4 7.8
2017-Sep-15 11:30N 59°58' E 005°47'5 9.2
2017-Sep-15 11:01N 60°01' E 005°55'5 9.5
2017-Sep-15 10:30N 60°05' E 006°01'5 9.3
2017-Sep-15 10:00N 60°09' E 006°04'5 9.5
2017-Sep-15 09:30N 60°14' E 006°07'5 9.5
2017-Sep-15 09:00N 60°17' E 006°14'0 0.8
2017-Sep-15 08:28N 60°17' E 006°15'0 0.0
2017-Sep-15 07:58N 60°17' E 006°15'0 0.0
2017-Sep-15 07:28N 60°17' E 006°15'0 0.0
2017-Sep-15 06:58N 60°17' E 006°15'0 0.0
2017-Sep-15 06:30N 60°17' E 006°15'0 0.0
2017-Sep-15 06:00N 60°17' E 006°15'0 0.0
2017-Sep-15 05:30N 60°17' E 006°15'0 0.0
2017-Sep-15 05:00N 60°17' E 006°15'2 3.7
2017-Sep-15 04:30N 60°16' E 006°12'4 8.4
2017-Sep-15 03:59N 60°13' E 006°06'4 8.3
2017-Sep-15 03:30N 60°09' E 006°04'4 8.2
2017-Sep-15 03:00N 60°05' E 006°02'4 8.4
2017-Sep-15 02:29N 60°01' E 005°59'4 7.7
2017-Sep-15 02:00N 59°57' E 005°57'0 0.0
2017-Sep-15 01:24N 59°57' E 005°57'0 0.0
2017-Sep-15 01:00N 59°57' E 005°57'0 0.0
2017-Sep-15 00:30N 59°57' E 005°57'2 4.5
2017-Sep-15 00:00N 59°59' E 005°58'5 9.3
2017-Sep-14 23:30N 60°04' E 005°60'5 9.3
2017-Sep-14 23:00N 60°08' E 006°04'5 8.9
2017-Sep-14 22:30N 60°12' E 006°05'5 9.3
2017-Sep-14 22:00N 60°16' E 006°11'5 9.3
2017-Sep-14 21:30N 60°20' E 006°16'5 9.1
2017-Sep-14 21:00N 60°23' E 006°22'5 9.2
2017-Sep-14 20:29N 60°26' E 006°30'4 8.2
2017-Sep-14 20:00N 60°26' E 006°39'4 7.7
2017-Sep-14 19:30N 60°27' E 006°46'4 7.6
2017-Sep-14 18:59N 60°29' E 006°53'1 1.3
2017-Sep-14 18:30N 60°28' E 006°54'0 0.0
2017-Sep-14 17:58N 60°28' E 006°54'0 0.0
2017-Sep-14 17:25N 60°28' E 006°54'0 0.0
2017-Sep-14 16:58N 60°28' E 006°54'0 0.0
2017-Sep-14 16:28N 60°28' E 006°54'0 0.0
2017-Sep-14 15:58N 60°28' E 006°54'0 0.0
2017-Sep-14 15:28N 60°28' E 006°54'0 0.0
2017-Sep-14 14:58N 60°28' E 006°54'0 0.0
2017-Sep-14 14:28N 60°28' E 006°54'0 0.0
2017-Sep-14 13:58N 60°28' E 006°54'0 0.0
2017-Sep-14 13:28N 60°28' E 006°54'0 0.0
2017-Sep-14 12:58N 60°28' E 006°54'0 0.0
2017-Sep-14 12:28N 60°28' E 006°54'0 0.0
2017-Sep-14 11:58N 60°28' E 006°54'0 0.0
2017-Sep-14 11:28N 60°28' E 006°54'0 0.0
2017-Sep-14 10:52N 60°28' E 006°54'0 0.0
2017-Sep-14 10:28N 60°28' E 006°54'0 0.0
2017-Sep-14 09:58N 60°28' E 006°54'0 0.0
2017-Sep-14 09:28N 60°28' E 006°54'0 0.0
2017-Sep-14 08:58N 60°28' E 006°54'0 0.0
2017-Sep-14 08:28N 60°28' E 006°54'0 0.0
2017-Sep-14 07:58N 60°28' E 006°54'0 0.2
2017-Sep-14 07:30N 60°28' E 006°54'3 6.9
2017-Sep-14 07:00N 60°28' E 006°47'4 7.9
2017-Sep-14 06:30N 60°26' E 006°41'4 8.0
2017-Sep-14 06:00N 60°26' E 006°33'4 8.1
2017-Sep-14 05:30N 60°24' E 006°26'4 8.1
2017-Sep-14 05:00N 60°22' E 006°19'4 8.3
2017-Sep-14 04:30N 60°18' E 006°14'4 8.0
2017-Sep-14 04:00N 60°15' E 006°10'4 8.1
2017-Sep-14 03:30N 60°12' E 006°05'4 8.2
2017-Sep-14 03:00N 60°08' E 006°04'4 8.1
2017-Sep-14 02:30N 60°04' E 006°00'4 8.1
2017-Sep-14 02:00N 60°01' E 005°55'4 8.0
2017-Sep-14 01:29N 59°58' E 005°50'4 7.9
2017-Sep-14 01:00N 59°55' E 005°45'4 7.9
2017-Sep-14 00:30N 59°52' E 005°40'4 7.7
2017-Sep-13 23:59N 59°48' E 005°37'4 8.2
2017-Sep-13 23:30N 59°44' E 005°38'4 8.3
2017-Sep-13 23:00N 59°41' E 005°42'4 8.0
2017-Sep-13 22:30N 59°39' E 005°49'3 6.6
2017-Sep-13 21:58N 59°40' E 005°56'0 0.1
2017-Sep-13 21:28N 59°40' E 005°56'0 0.0
2017-Sep-13 20:58N 59°40' E 005°56'0 0.0
2017-Sep-13 20:28N 59°40' E 005°56'0 0.0
2017-Sep-13 19:58N 59°40' E 005°56'0 0.0
2017-Sep-13 19:28N 59°40' E 005°56'0 0.0
2017-Sep-13 18:52N 59°40' E 005°56'0 0.0
2017-Sep-13 18:28N 59°40' E 005°56'0 0.0
2017-Sep-13 17:58N 59°40' E 005°56'1 1.5
2017-Sep-13 17:30N 59°40' E 005°54'4 9.0
2017-Sep-13 17:00N 59°39' E 005°46'5 9.3
2017-Sep-13 16:30N 59°42' E 005°39'5 9.6
2017-Sep-13 15:59N 59°47' E 005°37'510.1
2017-Sep-13 15:30N 59°52' E 005°41'5 9.8
2017-Sep-13 14:59N 59°56' E 005°47'5 9.5
2017-Sep-13 14:29N 59°60' E 005°53'5 9.6
2017-Sep-13 14:00N 60°03' E 005°59'5 9.7
2017-Sep-13 13:29N 60°07' E 006°04'5 9.6
2017-Sep-13 13:00N 60°12' E 006°05'5 9.7
2017-Sep-13 12:29N 60°16' E 006°11'5 9.7
2017-Sep-13 12:00N 60°21' E 006°14'3 4.9
2017-Sep-13 11:28N 60°23' E 006°12'0 0.0
2017-Sep-13 10:58N 60°23' E 006°12'0 0.0
2017-Sep-13 10:28N 60°23' E 006°12'0 0.0
2017-Sep-13 09:58N 60°23' E 006°12'0 0.0
2017-Sep-13 09:28N 60°23' E 006°12'0 0.0
2017-Sep-13 08:58N 60°23' E 006°12'0 0.0
2017-Sep-13 08:28N 60°23' E 006°12'0 0.0
2017-Sep-13 07:58N 60°23' E 006°12'0 0.0
2017-Sep-13 07:28N 60°23' E 006°12'0 0.0
2017-Sep-13 06:58N 60°23' E 006°12'0 0.0
2017-Sep-13 06:28N 60°23' E 006°12'0 0.0
2017-Sep-13 05:58N 60°23' E 006°12'0 0.0
2017-Sep-13 05:29N 60°23' E 006°12'0 0.8
2017-Sep-13 05:00N 60°23' E 006°13'2 4.0
2017-Sep-13 04:30N 60°21' E 006°14'3 6.4
2017-Sep-13 04:00N 60°18' E 006°13'3 6.6
2017-Sep-13 03:30N 60°15' E 006°10'3 6.5
2017-Sep-13 03:00N 60°13' E 006°05'3 6.3
2017-Sep-13 02:30N 60°09' E 006°05'3 6.3
2017-Sep-13 02:00N 60°06' E 006°05'3 6.4
2017-Sep-13 01:30N 60°04' E 006°01'3 6.6
2017-Sep-13 01:00N 60°01' E 005°59'3 6.6
2017-Sep-13 00:29N 59°57' E 005°57'1 1.0
2017-Sep-12 23:59N 59°57' E 005°57'0 0.0
2017-Sep-12 22:18N 59°57' E 005°57'0 0.1
2017-Sep-12 22:00N 59°57' E 005°57'2 3.7
2017-Sep-12 21:30N 59°59' E 005°58'4 8.9
2017-Sep-12 21:00N 60°03' E 006°00'5 9.3
2017-Sep-12 20:30N 60°07' E 006°04'4 8.7
2017-Sep-12 20:00N 60°11' E 006°04'5 8.8
2017-Sep-12 19:30N 60°15' E 006°10'4 8.9
2017-Sep-12 19:00N 60°19' E 006°14'5 9.0
2017-Sep-12 18:30N 60°22' E 006°20'4 8.7
2017-Sep-12 18:00N 60°25' E 006°27'4 8.7
2017-Sep-12 17:30N 60°26' E 006°35'4 8.3
2017-Sep-12 17:00N 60°26' E 006°44'4 8.6
2017-Sep-12 16:30N 60°29' E 006°51'2 3.4
2017-Sep-12 15:58N 60°28' E 006°54'0 0.0
2017-Sep-12 15:28N 60°28' E 006°54'0 0.0
2017-Sep-12 14:58N 60°28' E 006°54'0 0.0
2017-Sep-12 14:28N 60°28' E 006°54'0 0.0
2017-Sep-12 13:58N 60°28' E 006°54'0 0.0
2017-Sep-12 13:28N 60°28' E 006°54'0 0.0
2017-Sep-12 12:58N 60°28' E 006°54'0 0.0
2017-Sep-12 12:28N 60°28' E 006°54'0 0.0
2017-Sep-12 11:58N 60°28' E 006°54'0 0.0
2017-Sep-12 11:28N 60°28' E 006°54'0 0.0
2017-Sep-12 10:58N 60°28' E 006°54'0 0.0
2017-Sep-12 10:28N 60°28' E 006°54'0 0.0
2017-Sep-12 09:58N 60°28' E 006°54'0 0.0
2017-Sep-12 09:28N 60°28' E 006°54'1 1.3
2017-Sep-12 08:59N 60°28' E 006°53'4 7.6
2017-Sep-12 08:30N 60°27' E 006°46'4 7.6
2017-Sep-12 08:00N 60°26' E 006°39'4 7.6
2017-Sep-12 07:30N 60°26' E 006°31'4 7.9
2017-Sep-12 07:00N 60°24' E 006°24'4 7.9
2017-Sep-12 06:30N 60°21' E 006°18'4 7.9
2017-Sep-12 06:00N 60°18' E 006°13'4 7.1
2017-Sep-12 05:30N 60°15' E 006°10'4 7.0
2017-Sep-12 05:00N 60°12' E 006°05'4 7.6
2017-Sep-12 04:30N 60°09' E 006°04'4 7.8
2017-Sep-12 04:00N 60°05' E 006°01'4 7.9
2017-Sep-12 03:30N 60°02' E 005°57'4 7.8
2017-Sep-12 03:00N 59°59' E 005°51'4 7.8
2017-Sep-12 02:30N 59°56' E 005°46'  
Track history (hours):
 
Tides and Currents Weather Stations Pressure Air Temp Water Temp Dewpoint Dewpoint Depression Visibility Wind Speed Wind Dir Waves Ship Positions

Straumvik

Last reported at 2017-Sep-22 02:00 UTC. Time now 2017-Sep-22 10:02 UTC.
Position N 59°19' E 005°58'.

Length 50 m; draft 5 m.

Type: Ship. MMSI: 258260000.

Date/timePositionNaut miles runAvg speedWind from/ knotsBaromVisibWave heightAir tempDewpointWater temp
2017-Sep-22 02:00N 59°19' E 005°58'3 5.5
2017-Sep-22 01:30N 59°21' E 006°01'1 2.3
2017-Sep-22 00:58N 59°22' E 006°03'0 0.0
2017-Sep-22 00:28N 59°22' E 006°03'0 0.2
2017-Sep-21 23:58N 59°22' E 006°03'0 0.0
2017-Sep-21 23:28N 59°22' E 006°03'0 0.0
2017-Sep-21 22:58N 59°22' E 006°03'0 0.0
2017-Sep-21 22:28N 59°22' E 006°03'0 0.0
2017-Sep-21 21:58N 59°22' E 006°03'0 0.0
2017-Sep-21 21:28N 59°22' E 006°03'0 0.0
2017-Sep-21 20:58N 59°22' E 006°03'0 0.0
2017-Sep-21 20:30N 59°22' E 006°03'2 5.1
2017-Sep-21 20:00N 59°20' E 005°60'4 7.1
2017-Sep-21 19:30N 59°18' E 005°55'4 8.0
2017-Sep-21 19:00N 59°14' E 005°55'4 8.3
2017-Sep-21 18:30N 59°09' E 005°56'4 7.9
2017-Sep-21 18:00N 59°06' E 005°54'0 0.4
2017-Sep-21 17:29N 59°06' E 005°55'0 0.0
2017-Sep-21 17:00N 59°06' E 005°55'0 0.0
2017-Sep-21 16:31N 59°06' E 005°55'4 7.0
2017-Sep-21 16:00N 59°08' E 005°59'5 9.1
2017-Sep-21 15:30N 59°12' E 006°04'4 6.9
2017-Sep-21 14:59N 59°14' E 006°10'0 0.0
2017-Sep-21 14:29N 59°14' E 006°10'0 0.0
2017-Sep-21 13:59N 59°14' E 006°10'0 0.1
2017-Sep-21 13:30N 59°14' E 006°10'0 0.1
2017-Sep-21 12:59N 59°14' E 006°10'0 0.0
2017-Sep-21 12:29N 59°14' E 006°10'0 0.0
2017-Sep-21 11:59N 59°14' E 006°10'0 0.0
2017-Sep-21 11:26N 59°14' E 006°10'0 0.0
2017-Sep-21 10:59N 59°14' E 006°10'0 0.0
2017-Sep-21 10:29N 59°14' E 006°10'0 0.0
2017-Sep-21 09:59N 59°14' E 006°10'0 0.0
2017-Sep-21 09:29N 59°14' E 006°10'0 0.0
2017-Sep-21 08:59N 59°14' E 006°10'0 0.0
2017-Sep-21 08:29N 59°14' E 006°10'0 0.0
2017-Sep-21 07:59N 59°14' E 006°10'0 0.0
2017-Sep-21 07:29N 59°14' E 006°10'0 0.0
2017-Sep-21 06:59N 59°14' E 006°10'0 0.0
2017-Sep-21 06:29N 59°14' E 006°10'0 0.0
2017-Sep-21 05:59N 59°14' E 006°10'0 0.0
2017-Sep-21 05:29N 59°14' E 006°10'0 0.0
2017-Sep-21 05:00N 59°14' E 006°10'1 2.5
2017-Sep-21 04:30N 59°14' E 006°07'4 7.9
2017-Sep-21 04:00N 59°11' E 006°03'4 7.9
2017-Sep-21 03:30N 59°08' E 005°58'3 5.9
2017-Sep-21 03:01N 59°05' E 005°54'0 0.0
2017-Sep-21 02:29N 59°05' E 005°54'0 0.0
2017-Sep-21 01:59N 59°05' E 005°54'0 0.0
2017-Sep-21 01:29N 59°05' E 005°54'0 0.0
2017-Sep-21 00:59N 59°05' E 005°54'0 0.0
2017-Sep-21 00:29N 59°05' E 005°54'0 0.0
2017-Sep-20 23:59N 59°05' E 005°54'0 0.0
2017-Sep-20 23:26N 59°05' E 005°54'0 0.0
2017-Sep-20 22:59N 59°05' E 005°54'0 0.0
2017-Sep-20 22:29N 59°05' E 005°54'0 0.0
2017-Sep-20 21:59N 59°05' E 005°54'0 0.0
2017-Sep-20 21:29N 59°05' E 005°54'0 0.0
2017-Sep-20 20:59N 59°05' E 005°54'0 0.0
2017-Sep-20 20:29N 59°05' E 005°54'0 0.0
2017-Sep-20 19:59N 59°05' E 005°54'0 0.0
2017-Sep-20 19:29N 59°05' E 005°54'0 0.0
2017-Sep-20 19:00N 59°05' E 005°54'0 0.0
2017-Sep-20 18:30N 59°05' E 005°54'0 0.0
2017-Sep-20 17:59N 59°05' E 005°54'0 0.0
2017-Sep-20 17:30N 59°05' E 005°54'0 0.0
2017-Sep-20 17:00N 59°05' E 005°54'0 0.0
2017-Sep-20 16:30N 59°05' E 005°54'0 0.0
2017-Sep-20 16:00N 59°05' E 005°54'0 0.0
2017-Sep-20 15:30N 59°05' E 005°54'0 0.0
2017-Sep-20 15:00N 59°05' E 005°54'8 7.8
2017-Sep-20 14:00N 58°58' E 005°50'4 8.9
2017-Sep-20 13:30N 58°54' E 005°46'3 5.6
2017-Sep-20 13:00N 58°51' E 005°45'0 0.0
2017-Sep-20 12:28N 58°51' E 005°45'0 0.0
2017-Sep-20 11:58N 58°51' E 005°45'0 0.0
2017-Sep-20 11:28N 58°51' E 005°45'0 0.0
2017-Sep-20 10:58N 58°51' E 005°45'0 0.0
2017-Sep-20 10:28N 58°51' E 005°45'0 0.0
2017-Sep-20 09:58N 58°51' E 005°45'0 0.0
2017-Sep-20 09:28N 58°51' E 005°45'0 0.0
2017-Sep-20 08:58N 58°51' E 005°45'0 0.0
2017-Sep-20 08:28N 58°51' E 005°45'0 0.2
2017-Sep-20 08:01N 58°51' E 005°45'3 5.7
2017-Sep-20 07:30N 58°54' E 005°46'3 6.2
2017-Sep-20 07:00N 58°57' E 005°48'3 5.8
2017-Sep-20 06:30N 58°59' E 005°51'3 6.5
2017-Sep-20 06:00N 59°03' E 005°52'3 5.7
2017-Sep-20 05:30N 59°05' E 005°54'0 0.7
2017-Sep-20 05:00N 59°05' E 005°54'0 0.0
2017-Sep-20 04:30N 59°05' E 005°54'0 0.4
2017-Sep-20 04:00N 59°05' E 005°54'4 7.7
2017-Sep-20 03:30N 59°08' E 005°48'5 9.0
2017-Sep-20 03:00N 59°09' E 005°39'4 8.8
2017-Sep-20 02:30N 59°11' E 005°32'4 8.8
2017-Sep-20 02:00N 59°14' E 005°26'4 7.4
2017-Sep-20 01:29N 59°17' E 005°20'4 8.9
2017-Sep-20 01:00N 59°21' E 005°19'5 9.3
2017-Sep-20 00:29N 59°25' E 005°14'5 9.5
2017-Sep-20 00:00N 59°30' E 005°13'5 8.9
2017-Sep-19 23:29N 59°34' E 005°15'4 9.2
2017-Sep-19 23:00N 59°38' E 005°19'5 9.2
2017-Sep-19 22:30N 59°42' E 005°25'5 9.6
2017-Sep-19 21:59N 59°45' E 005°31'4 9.0
2017-Sep-19 21:30N 59°49' E 005°36'4 8.7
2017-Sep-19 21:00N 59°52' E 005°41'5 9.1
2017-Sep-19 20:30N 59°56' E 005°47'5 9.3
2017-Sep-19 20:00N 59°60' E 005°53'5 9.1
2017-Sep-19 19:30N 60°03' E 005°59'5 9.0
2017-Sep-19 19:00N 60°07' E 006°03'4 8.6
2017-Sep-19 18:30N 60°11' E 006°04'4 8.4
2017-Sep-19 18:00N 60°14' E 006°10'4 8.7
2017-Sep-19 17:30N 60°18' E 006°14'4 8.8
2017-Sep-19 16:59N 60°22' E 006°19'4 8.8
2017-Sep-19 16:30N 60°24' E 006°27'4 8.7
2017-Sep-19 16:00N 60°26' E 006°34'4 8.5
2017-Sep-19 15:30N 60°26' E 006°43'4 8.9
2017-Sep-19 15:00N 60°28' E 006°50'2 4.2
2017-Sep-19 14:28N 60°28' E 006°54'0 0.0
2017-Sep-19 13:58N 60°28' E 006°54'0 0.0
2017-Sep-19 13:28N 60°28' E 006°54'0 0.0
2017-Sep-19 12:58N 60°28' E 006°54'0 0.0
2017-Sep-19 12:28N 60°28' E 006°54'0 0.0
2017-Sep-19 11:58N 60°28' E 006°54'0 0.0
2017-Sep-19 11:28N 60°28' E 006°54'0 0.0
2017-Sep-19 10:58N 60°28' E 006°54'0 0.0
2017-Sep-19 10:28N 60°28' E 006°54'0 0.0
2017-Sep-19 09:58N 60°28' E 006°54'0 0.0
2017-Sep-19 09:28N 60°28' E 006°54'0 0.0
2017-Sep-19 08:58N 60°28' E 006°54'0 0.0
2017-Sep-19 08:28N 60°28' E 006°54'0 0.0
2017-Sep-19 07:58N 60°28' E 006°54'0 0.0
2017-Sep-19 07:28N 60°28' E 006°54'0 0.0
2017-Sep-19 06:58N 60°28' E 006°54'0 0.0
2017-Sep-19 06:28N 60°28' E 006°54'0 0.0
2017-Sep-19 05:58N 60°28' E 006°54'0 0.0
2017-Sep-19 05:28N 60°28' E 006°54'0 0.0
2017-Sep-19 04:58N 60°28' E 006°54'0 0.0
2017-Sep-19 04:30N 60°28' E 006°54'1 2.4
2017-Sep-19 04:00N 60°29' E 006°52'4 7.1
2017-Sep-19 03:30N 60°27' E 006°46'4 7.5
2017-Sep-19 03:00N 60°26' E 006°38'4 8.1
2017-Sep-19 02:30N 60°26' E 006°30'4 8.5
2017-Sep-19 01:59N 60°23' E 006°23'4 8.4
2017-Sep-19 01:30N 60°20' E 006°17'4 8.5
2017-Sep-19 01:00N 60°17' E 006°12'4 8.2
2017-Sep-19 00:30N 60°13' E 006°08'4 8.0
2017-Sep-19 00:00N 60°10' E 006°04'4 8.3
2017-Sep-18 23:30N 60°06' E 006°02'4 8.5
2017-Sep-18 23:00N 60°02' E 005°57'4 8.5
2017-Sep-18 22:30N 59°59' E 005°52'4 8.4
2017-Sep-18 22:00N 59°56' E 005°46'4 8.3
2017-Sep-18 21:30N 59°53' E 005°42'4 8.1
2017-Sep-18 21:00N 59°49' E 005°37'4 8.2
2017-Sep-18 20:30N 59°45' E 005°38'4 7.8
2017-Sep-18 20:00N 59°41' E 005°41'4 7.8
2017-Sep-18 19:30N 59°39' E 005°47'4 8.0
2017-Sep-18 19:00N 59°40' E 005°55'1 1.1
2017-Sep-18 18:28N 59°40' E 005°56'0 0.0
2017-Sep-18 17:58N 59°40' E 005°56'0 0.0
2017-Sep-18 17:28N 59°40' E 005°56'0 0.0
2017-Sep-18 16:58N 59°40' E 005°56'0 0.0
2017-Sep-18 16:28N 59°40' E 005°56'0 0.0
2017-Sep-18 15:58N 59°40' E 005°56'0 0.0
2017-Sep-18 15:28N 59°40' E 005°56'0 0.0
2017-Sep-18 14:58N 59°40' E 005°56'0 0.0
2017-Sep-18 14:28N 59°40' E 005°56'0 0.0
2017-Sep-18 14:00N 59°40' E 005°56'3 6.4
2017-Sep-18 13:30N 59°39' E 005°50'5 9.2
2017-Sep-18 13:00N 59°41' E 005°41'5 9.6
2017-Sep-18 12:30N 59°45' E 005°37'5 9.6
2017-Sep-18 12:00N 59°49' E 005°33'5 9.3
2017-Sep-18 11:29N 59°54' E 005°31'5 9.5
2017-Sep-18 10:59N 59°58' E 005°25'4 9.2
2017-Sep-18 10:30N 60°01' E 005°20'5 9.1
2017-Sep-18 10:00N 60°06' E 005°18'5 9.3
2017-Sep-18 09:30N 60°10' E 005°15'5 9.1
2017-Sep-18 09:00N 60°14' E 005°10'5 9.0
2017-Sep-18 08:30N 60°18' E 005°08'2 4.4
2017-Sep-18 07:58N 60°21' E 005°07'0 0.0
2017-Sep-18 07:28N 60°21' E 005°07'0 0.0
2017-Sep-18 06:58N 60°21' E 005°07'0 0.0
2017-Sep-18 06:28N 60°21' E 005°07'0 0.0
2017-Sep-18 05:58N 60°21' E 005°07'0 0.0
2017-Sep-18 05:28N 60°21' E 005°07'0 0.0
2017-Sep-18 04:58N 60°21' E 005°07'0 0.0
2017-Sep-18 04:28N 60°21' E 005°07'0 0.0
2017-Sep-18 03:58N 60°21' E 005°07'0 0.0
2017-Sep-18 03:30N 60°21' E 005°07'1 2.9
2017-Sep-18 03:00N 60°19' E 005°08'3 5.8
2017-Sep-18 02:30N 60°16' E 005°09'3 5.7
2017-Sep-18 02:00N 60°14' E 005°10'3 5.5
2017-Sep-18 01:29N 60°11' E 005°13'3 5.4
2017-Sep-18 01:00N 60°09' E 005°16'3 5.4
2017-Sep-18 00:29N 60°07' E 005°18'3 5.7
2017-Sep-18 00:00N 60°04' E 005°20'3 6.1
2017-Sep-17 23:30N 60°01' E 005°20'3 5.7
2017-Sep-17 22:59N 59°58' E 005°23'3 6.2
2017-Sep-17 22:30N 59°56' E 005°28'3 6.0
2017-Sep-17 22:00N 59°54' E 005°31'3 6.1
2017-Sep-17 21:30N 59°51' E 005°33'3 5.6
2017-Sep-17 21:00N 59°48' E 005°34'2 4.7
2017-Sep-17 20:30N 59°46' E 005°32'3 5.4
2017-Sep-17 20:00N 59°44' E 005°29'3 5.5
2017-Sep-17 19:30N 59°42' E 005°25'3 5.5
2017-Sep-17 19:00N 59°40' E 005°22'3 6.2
2017-Sep-17 18:30N 59°37' E 005°18'3 6.9
2017-Sep-17 18:00N 59°34' E 005°15'4 7.2
2017-Sep-17 17:30N 59°31' E 005°13'3 6.7
2017-Sep-17 17:00N 59°27' E 005°13'3 6.5
2017-Sep-17 16:29N 59°24' E 005°16'4 7.5
2017-Sep-17 16:00N 59°21' E 005°19'4 7.4
2017-Sep-17 15:30N 59°17' E 005°20'3 5.7
2017-Sep-17 15:00N 59°15' E 005°23'3 5.7
2017-Sep-17 14:30N 59°13' E 005°28'3 6.5
2017-Sep-17 14:00N 59°11' E 005°32'3 6.8
2017-Sep-17 13:30N 59°10' E 005°38'3 6.9
2017-Sep-17 13:00N 59°08' E 005°44'4 7.0
2017-Sep-17 12:30N 59°07' E 005°51'3 5.1
2017-Sep-17 12:00N 59°07' E 005°56'3 6.4
2017-Sep-17 11:30N 59°08' E 006°02'3 5.8
2017-Sep-17 11:00N 59°09' E 006°07'2 3.0
2017-Sep-17 10:30N 59°09' E 006°10'0 0.0
2017-Sep-17 10:00N 59°09' E 006°10'0 0.0
2017-Sep-17 09:24N 59°09' E 006°10'0 0.0
2017-Sep-17 09:00N 59°09' E 006°10'0 0.0
2017-Sep-17 08:27N 59°09' E 006°10'0 0.0
2017-Sep-17 07:57N 59°09' E 006°10'0 0.0
2017-Sep-17 07:30N 59°09' E 006°10'0 0.0
2017-Sep-17 07:00N 59°09' E 006°10'0 0.0
2017-Sep-17 06:30N 59°09' E 006°10'0 0.0
2017-Sep-17 06:00N 59°09' E 006°10'0 0.0
2017-Sep-17 05:30N 59°09' E 006°10'0 0.0
2017-Sep-17 05:00N 59°09' E 006°10'0 0.0
2017-Sep-17 04:30N 59°09' E 006°10'0 0.0
2017-Sep-17 04:00N 59°09' E 006°10'0 0.0
2017-Sep-17 03:30N 59°09' E 006°10'0 0.0
2017-Sep-17 03:00N 59°09' E 006°10'0 0.0
2017-Sep-17 02:30N 59°09' E 006°10'0 0.0
2017-Sep-17 01:57N 59°09' E 006°10'0 0.0
2017-Sep-17 01:30N 59°09' E 006°10'0 0.0
2017-Sep-17 01:00N 59°09' E 006°10'0 0.0
2017-Sep-17 00:30N 59°09' E 006°10'0 0.0
2017-Sep-16 23:57N 59°09' E 006°10'0 0.0
2017-Sep-16 23:30N 59°09' E 006°10'0 0.0
2017-Sep-16 23:00N 59°09' E 006°10'0 0.6
2017-Sep-16 22:30N 59°09' E 006°09'4 7.1
2017-Sep-16 22:00N 59°08' E 006°03'4 7.7
2017-Sep-16 21:30N 59°07' E 005°56'3 6.1
2017-Sep-16 21:00N 59°07' E 005°50'4 8.1
2017-Sep-16 20:30N 59°09' E 005°42'4 8.2
2017-Sep-16 20:00N 59°10' E 005°35'4 8.0
2017-Sep-16 19:30N 59°13' E 005°29'4 7.2
2017-Sep-16 19:00N 59°15' E 005°23'3 6.8
2017-Sep-16 18:30N 59°18' E 005°20'4 8.1
2017-Sep-16 18:00N 59°22' E 005°18'2 4.1
2017-Sep-16 17:30N 59°24' E 005°16'0 0.1
2017-Sep-16 17:00N 59°24' E 005°16'3 6.6
2017-Sep-16 16:30N 59°27' E 005°14'4 7.7
2017-Sep-16 16:00N 59°30' E 005°13'4 8.3
2017-Sep-16 15:30N 59°34' E 005°15'5 9.1
2017-Sep-16 15:00N 59°39' E 005°20'5 9.2
2017-Sep-16 14:30N 59°42' E 005°25'5 9.4
2017-Sep-16 14:00N 59°45' E 005°32'4 8.4
2017-Sep-16 13:30N 59°50' E 005°33'4 7.7
2017-Sep-16 13:00N 59°53' E 005°32'4 7.1
2017-Sep-16 12:30N 59°56' E 005°28'4 7.5
2017-Sep-16 12:00N 59°59' E 005°22'4 8.2
2017-Sep-16 11:30N 60°03' E 005°20'4 7.1
2017-Sep-16 11:00N 60°05' E 005°25'3 6.5
2017-Sep-16 10:30N 60°03' E 005°28'3 5.8
2017-Sep-16 10:00N 59°60' E 005°29'0 0.0
2017-Sep-16 09:29N 59°60' E 005°29'0 0.0
2017-Sep-16 08:53N 59°60' E 005°29'0 0.0
2017-Sep-16 08:29N 59°60' E 005°29'0 0.0
2017-Sep-16 07:59N 59°60' E 005°29'0 0.0
2017-Sep-16 07:23N 59°60' E 005°29'0 0.0
2017-Sep-16 06:53N 59°60' E 005°29'0 0.0
2017-Sep-16 06:29N 59°60' E 005°29'0 0.0
2017-Sep-16 05:59N 59°60' E 005°29'0 0.0
2017-Sep-16 05:29N 59°60' E 005°29'0 0.1
2017-Sep-16 05:00N 59°60' E 005°29'2 3.4
2017-Sep-16 04:29N 60°01' E 005°27'2 4.1
2017-Sep-16 04:00N 60°03' E 005°28'2 3.7
2017-Sep-16 03:30N 60°05' E 005°28'2 4.5
2017-Sep-16 03:00N 60°06' E 005°24'2 4.4
2017-Sep-16 02:30N 60°07' E 005°20'2 4.4
2017-Sep-16 02:00N 60°09' E 005°17'2 4.6
2017-Sep-16 01:30N 60°10' E 005°14'2 4.1
2017-Sep-16 01:00N 60°12' E 005°11'3 5.1
2017-Sep-16 00:30N 60°14' E 005°09'3 5.2
2017-Sep-16 00:00N 60°17' E 005°09'3 5.4
2017-Sep-15 23:30N 60°20' E 005°09'3 5.5
2017-Sep-15 23:00N 60°22' E 005°10'3 5.9
2017-Sep-15 22:30N 60°24' E 005°15'3 5.2
2017-Sep-15 22:00N 60°27' E 005°15'3 5.8
2017-Sep-15 21:30N 60°30' E 005°14'3 6.0
2017-Sep-15 21:00N 60°31' E 005°08'3 6.0
2017-Sep-15 20:30N 60°32' E 005°03'2 3.7
2017-Sep-15 19:58N 60°33' E 004°59'0 0.0
2017-Sep-15 19:31N 60°33' E 004°59'0 0.0
2017-Sep-15 19:01N 60°33' E 004°59'0 0.0
2017-Sep-15 18:28N 60°33' E 004°59'0 0.0
2017-Sep-15 18:01N 60°33' E 004°59'1 2.7
2017-Sep-15 17:30N 60°33' E 005°02'4 8.3
2017-Sep-15 17:00N 60°31' E 005°09'4 7.6
2017-Sep-15 16:30N 60°28' E 005°15'4 7.5
2017-Sep-15 16:00N 60°24' E 005°15'4 7.8
2017-Sep-15 15:30N 60°21' E 005°10'4 7.9
2017-Sep-15 15:00N 60°17' E 005°11'4 7.5
2017-Sep-15 14:30N 60°13' E 005°10'4 8.2
2017-Sep-15 14:01N 60°10' E 005°16'4 8.3
2017-Sep-15 13:30N 60°08' E 005°22'4 8.9
2017-Sep-15 13:01N 60°07' E 005°31'4 8.9
2017-Sep-15 12:30N 60°05' E 005°39'4 8.1
2017-Sep-15 12:00N 60°02' E 005°43'4 7.8
2017-Sep-15 11:30N 59°58' E 005°47'5 9.2
2017-Sep-15 11:01N 60°01' E 005°55'5 9.5
2017-Sep-15 10:30N 60°05' E 006°01'5 9.3
2017-Sep-15 10:00N 60°09' E 006°04'5 9.5
2017-Sep-15 09:30N 60°14' E 006°07'5 9.5
2017-Sep-15 09:00N 60°17' E 006°14'0 0.8
2017-Sep-15 08:28N 60°17' E 006°15'0 0.0
2017-Sep-15 07:58N 60°17' E 006°15'0 0.0
2017-Sep-15 07:28N 60°17' E 006°15'0 0.0
2017-Sep-15 06:58N 60°17' E 006°15'0 0.0
2017-Sep-15 06:30N 60°17' E 006°15'0 0.0
2017-Sep-15 06:00N 60°17' E 006°15'0 0.0
2017-Sep-15 05:30N 60°17' E 006°15'0 0.0
2017-Sep-15 05:00N 60°17' E 006°15'2 3.7
2017-Sep-15 04:30N 60°16' E 006°12'4 8.4
2017-Sep-15 03:59N 60°13' E 006°06'4 8.3
2017-Sep-15 03:30N 60°09' E 006°04'4 8.2
2017-Sep-15 03:00N 60°05' E 006°02'4 8.4
2017-Sep-15 02:29N 60°01' E 005°59'4 7.7
2017-Sep-15 02:00N 59°57' E 005°57'0 0.0
2017-Sep-15 01:24N 59°57' E 005°57'0 0.0
2017-Sep-15 01:00N 59°57' E 005°57'0 0.0
2017-Sep-15 00:30N 59°57' E 005°57'2 4.5
2017-Sep-15 00:00N 59°59' E 005°58'5 9.3
2017-Sep-14 23:30N 60°04' E 005°60'5 9.3
2017-Sep-14 23:00N 60°08' E 006°04'5 8.9
2017-Sep-14 22:30N 60°12' E 006°05'5 9.3
2017-Sep-14 22:00N 60°16' E 006°11'5 9.3
2017-Sep-14 21:30N 60°20' E 006°16'5 9.1
2017-Sep-14 21:00N 60°23' E 006°22'5 9.2
2017-Sep-14 20:29N 60°26' E 006°30'4 8.2
2017-Sep-14 20:00N 60°26' E 006°39'4 7.7
2017-Sep-14 19:30N 60°27' E 006°46'4 7.6
2017-Sep-14 18:59N 60°29' E 006°53'1 1.3
2017-Sep-14 18:30N 60°28' E 006°54'0 0.0
2017-Sep-14 17:58N 60°28' E 006°54'0 0.0
2017-Sep-14 17:25N 60°28' E 006°54'0 0.0
2017-Sep-14 16:58N 60°28' E 006°54'0 0.0
2017-Sep-14 16:28N 60°28' E 006°54'0 0.0
2017-Sep-14 15:58N 60°28' E 006°54'0 0.0
2017-Sep-14 15:28N 60°28' E 006°54'0 0.0
2017-Sep-14 14:58N 60°28' E 006°54'0 0.0
2017-Sep-14 14:28N 60°28' E 006°54'0 0.0
2017-Sep-14 13:58N 60°28' E 006°54'0 0.0
2017-Sep-14 13:28N 60°28' E 006°54'0 0.0
2017-Sep-14 12:58N 60°28' E 006°54'0 0.0
2017-Sep-14 12:28N 60°28' E 006°54'0 0.0
2017-Sep-14 11:58N 60°28' E 006°54'0 0.0
2017-Sep-14 11:28N 60°28' E 006°54'0 0.0
2017-Sep-14 10:52N 60°28' E 006°54'0 0.0
2017-Sep-14 10:28N 60°28' E 006°54'0 0.0
2017-Sep-14 09:58N 60°28' E 006°54'0 0.0
2017-Sep-14 09:28N 60°28' E 006°54'0 0.0
2017-Sep-14 08:58N 60°28' E 006°54'0 0.0
2017-Sep-14 08:28N 60°28' E 006°54'0 0.0
2017-Sep-14 07:58N 60°28' E 006°54'0 0.2
2017-Sep-14 07:30N 60°28' E 006°54'3 6.9
2017-Sep-14 07:00N 60°28' E 006°47'4 7.9
2017-Sep-14 06:30N 60°26' E 006°41'4 8.0
2017-Sep-14 06:00N 60°26' E 006°33'4 8.1
2017-Sep-14 05:30N 60°24' E 006°26'4 8.1
2017-Sep-14 05:00N 60°22' E 006°19'4 8.3
2017-Sep-14 04:30N 60°18' E 006°14'4 8.0
2017-Sep-14 04:00N 60°15' E 006°10'4 8.1
2017-Sep-14 03:30N 60°12' E 006°05'4 8.2
2017-Sep-14 03:00N 60°08' E 006°04'4 8.1
2017-Sep-14 02:30N 60°04' E 006°00'4 8.1
2017-Sep-14 02:00N 60°01' E 005°55'4 8.0
2017-Sep-14 01:29N 59°58' E 005°50'4 7.9
2017-Sep-14 01:00N 59°55' E 005°45'4 7.9
2017-Sep-14 00:30N 59°52' E 005°40'4 7.7
2017-Sep-13 23:59N 59°48' E 005°37'4 8.2
2017-Sep-13 23:30N 59°44' E 005°38'4 8.3
2017-Sep-13 23:00N 59°41' E 005°42'4 8.0
2017-Sep-13 22:30N 59°39' E 005°49'3 6.6
2017-Sep-13 21:58N 59°40' E 005°56'0 0.1
2017-Sep-13 21:28N 59°40' E 005°56'0 0.0
2017-Sep-13 20:58N 59°40' E 005°56'0 0.0
2017-Sep-13 20:28N 59°40' E 005°56'0 0.0
2017-Sep-13 19:58N 59°40' E 005°56'0 0.0
2017-Sep-13 19:28N 59°40' E 005°56'0 0.0
2017-Sep-13 18:52N 59°40' E 005°56'0 0.0
2017-Sep-13 18:28N 59°40' E 005°56'0 0.0
2017-Sep-13 17:58N 59°40' E 005°56'1 1.5
2017-Sep-13 17:30N 59°40' E 005°54'4 9.0
2017-Sep-13 17:00N 59°39' E 005°46'5 9.3
2017-Sep-13 16:30N 59°42' E 005°39'5 9.6
2017-Sep-13 15:59N 59°47' E 005°37'510.1
2017-Sep-13 15:30N 59°52' E 005°41'5 9.8
2017-Sep-13 14:59N 59°56' E 005°47'5 9.5
2017-Sep-13 14:29N 59°60' E 005°53'5 9.6
2017-Sep-13 14:00N 60°03' E 005°59'5 9.7
2017-Sep-13 13:29N 60°07' E 006°04'5 9.6
2017-Sep-13 13:00N 60°12' E 006°05'5 9.7
2017-Sep-13 12:29N 60°16' E 006°11'5 9.7
2017-Sep-13 12:00N 60°21' E 006°14'3 4.9
2017-Sep-13 11:28N 60°23' E 006°12'0 0.0
2017-Sep-13 10:58N 60°23' E 006°12'0 0.0
2017-Sep-13 10:28N 60°23' E 006°12'0 0.0
2017-Sep-13 09:58N 60°23' E 006°12'0 0.0
2017-Sep-13 09:28N 60°23' E 006°12'0 0.0
2017-Sep-13 08:58N 60°23' E 006°12'0 0.0
2017-Sep-13 08:28N 60°23' E 006°12'0 0.0
2017-Sep-13 07:58N 60°23' E 006°12'0 0.0
2017-Sep-13 07:28N 60°23' E 006°12'0 0.0
2017-Sep-13 06:58N 60°23' E 006°12'0 0.0
2017-Sep-13 06:28N 60°23' E 006°12'0 0.0
2017-Sep-13 05:58N 60°23' E 006°12'0 0.0
2017-Sep-13 05:29N 60°23' E 006°12'0 0.8
2017-Sep-13 05:00N 60°23' E 006°13'2 4.0
2017-Sep-13 04:30N 60°21' E 006°14'3 6.4
2017-Sep-13 04:00N 60°18' E 006°13'3 6.6
2017-Sep-13 03:30N 60°15' E 006°10'3 6.5
2017-Sep-13 03:00N 60°13' E 006°05'3 6.3
2017-Sep-13 02:30N 60°09' E 006°05'3 6.3
2017-Sep-13 02:00N 60°06' E 006°05'3 6.4
2017-Sep-13 01:30N 60°04' E 006°01'3 6.6
2017-Sep-13 01:00N 60°01' E 005°59'3 6.6
2017-Sep-13 00:29N 59°57' E 005°57'1 1.0
2017-Sep-12 23:59N 59°57' E 005°57'0 0.0
2017-Sep-12 22:18N 59°57' E 005°57'0 0.1
2017-Sep-12 22:00N 59°57' E 005°57'2 3.7
2017-Sep-12 21:30N 59°59' E 005°58'4 8.9
2017-Sep-12 21:00N 60°03' E 006°00'5 9.3
2017-Sep-12 20:30N 60°07' E 006°04'4 8.7
2017-Sep-12 20:00N 60°11' E 006°04'5 8.8
2017-Sep-12 19:30N 60°15' E 006°10'4 8.9
2017-Sep-12 19:00N 60°19' E 006°14'5 9.0
2017-Sep-12 18:30N 60°22' E 006°20'4 8.7
2017-Sep-12 18:00N 60°25' E 006°27'4 8.7
2017-Sep-12 17:30N 60°26' E 006°35'4 8.3
2017-Sep-12 17:00N 60°26' E 006°44'4 8.6
2017-Sep-12 16:30N 60°29' E 006°51'2 3.4
2017-Sep-12 15:58N 60°28' E 006°54'0 0.0
2017-Sep-12 15:28N 60°28' E 006°54'0 0.0
2017-Sep-12 14:58N 60°28' E 006°54'0 0.0
2017-Sep-12 14:28N 60°28' E 006°54'0 0.0
2017-Sep-12 13:58N 60°28' E 006°54'0 0.0
2017-Sep-12 13:28N 60°28' E 006°54'0 0.0
2017-Sep-12 12:58N 60°28' E 006°54'0 0.0
2017-Sep-12 12:28N 60°28' E 006°54'0 0.0
2017-Sep-12 11:58N 60°28' E 006°54'0 0.0
2017-Sep-12 11:28N 60°28' E 006°54'0 0.0
2017-Sep-12 10:58N 60°28' E 006°54'0 0.0
2017-Sep-12 10:28N 60°28' E 006°54'0 0.0
2017-Sep-12 09:58N 60°28' E 006°54'0 0.0
2017-Sep-12 09:28N 60°28' E 006°54'1 1.3
2017-Sep-12 08:59N 60°28' E 006°53'4 7.6
2017-Sep-12 08:30N 60°27' E 006°46'4 7.6
2017-Sep-12 08:00N 60°26' E 006°39'4 7.6
2017-Sep-12 07:30N 60°26' E 006°31'4 7.9
2017-Sep-12 07:00N 60°24' E 006°24'4 7.9
2017-Sep-12 06:30N 60°21' E 006°18'4 7.9
2017-Sep-12 06:00N 60°18' E 006°13'4 7.1
2017-Sep-12 05:30N 60°15' E 006°10'4 7.0
2017-Sep-12 05:00N 60°12' E 006°05'4 7.6
2017-Sep-12 04:30N 60°09' E 006°04'4 7.8
2017-Sep-12 04:00N 60°05' E 006°01'4 7.9
2017-Sep-12 03:30N 60°02' E 005°57'4 7.8
2017-Sep-12 03:00N 59°59' E 005°51'4 7.8
2017-Sep-12 02:30N 59°56' E 005°46'  

Dump ship's entire track history